createdAt,value
2022-12-28T00:01:21.729Z,3.96
2022-12-28T00:03:48.734Z,4.01
2022-12-28T00:06:16.292Z,4.02
2022-12-28T00:08:42.756Z,3.88
2022-12-28T00:11:26.335Z,4.10
2022-12-28T00:13:57.636Z,4.23
2022-12-28T00:16:30.330Z,4.29
2022-12-28T00:18:59.087Z,4.29
2022-12-28T00:21:27.007Z,4.47
2022-12-28T00:23:57.124Z,4.43
2022-12-28T00:26:24.405Z,4.53
2022-12-28T00:28:50.918Z,4.51
2022-12-28T00:31:17.596Z,4.60
2022-12-28T00:33:45.223Z,4.66
2022-12-28T00:36:14.070Z,4.62
2022-12-28T00:38:41.026Z,4.63
2022-12-28T00:41:08.196Z,4.56
2022-12-28T00:43:34.826Z,4.55
2022-12-28T00:46:02.086Z,4.68
2022-12-28T00:48:28.728Z,4.72
2022-12-28T00:51:07.141Z,4.88
2022-12-28T00:53:33.615Z,4.86
2022-12-28T00:56:10.160Z,4.90
2022-12-28T00:58:36.954Z,4.81
2022-12-28T01:01:04.775Z,4.89
2022-12-28T01:03:31.358Z,4.80
2022-12-28T01:05:58.092Z,4.77
2022-12-28T01:08:24.852Z,4.79
2022-12-28T01:10:51.358Z,4.78
2022-12-28T01:13:17.772Z,4.67
2022-12-28T01:15:44.412Z,4.78
2022-12-28T01:18:10.804Z,4.80
2022-12-28T01:20:40.598Z,4.74
2022-12-28T01:23:07.087Z,4.64
2022-12-28T01:25:34.234Z,4.64
2022-12-28T01:28:00.675Z,4.59
2022-12-28T01:30:27.526Z,4.68
2022-12-28T01:32:53.977Z,4.49
2022-12-28T01:35:20.399Z,4.23
2022-12-28T01:37:46.791Z,4.09
2022-12-28T01:40:14.909Z,4.00
2022-12-28T01:42:41.544Z,4.04
2022-12-28T01:45:35.273Z,3.84
2022-12-28T01:48:02.524Z,3.82
2022-12-28T01:50:29.542Z,3.73
2022-12-28T01:52:58.763Z,3.51
2022-12-28T01:55:28.240Z,3.38
2022-12-28T01:57:59.199Z,3.25
2022-12-28T02:00:26.871Z,3.12
2022-12-28T02:03:05.696Z,3.07
2022-12-28T02:05:41.239Z,2.84
2022-12-28T02:08:11.784Z,2.93
2022-12-28T02:10:40.954Z,2.93
2022-12-28T02:13:13.387Z,2.82
2022-12-28T02:15:39.995Z,2.87
2022-12-28T02:18:06.918Z,2.79
2022-12-28T02:20:51.751Z,2.70
2022-12-28T02:23:45.597Z,2.76
2022-12-28T02:26:37.650Z,2.66
2022-12-28T02:29:23.858Z,2.72
2022-12-28T02:31:56.412Z,2.66
2022-12-28T02:34:55.900Z,2.61
2022-12-28T02:37:49.742Z,2.66
2022-12-28T02:40:25.117Z,2.57
2022-12-28T02:42:53.409Z,2.52
2022-12-28T02:46:03.582Z,2.45
2022-12-28T02:48:59.707Z,2.22
2022-12-28T02:52:04.870Z,2.20
2022-12-28T02:55:21.314Z,2.33
2022-12-28T02:57:59.955Z,2.36
2022-12-28T03:00:32.885Z,2.23
2022-12-28T03:03:29.495Z,2.20
2022-12-28T03:06:24.309Z,2.15
2022-12-28T03:09:06.835Z,2.18
2022-12-28T03:11:53.503Z,2.09
2022-12-28T03:14:28.463Z,2.10
2022-12-28T03:17:16.771Z,2.15
2022-12-28T03:20:05.953Z,2.02
2022-12-28T03:22:53.412Z,1.93
2022-12-28T03:25:40.756Z,1.89
2022-12-28T03:28:28.102Z,1.85
2022-12-28T03:31:07.022Z,1.85
2022-12-28T03:33:35.385Z,2.05
2022-12-28T03:36:26.767Z,2.16
2022-12-28T03:39:00.686Z,2.26
2022-12-28T03:41:35.264Z,2.38
2022-12-28T03:44:08.643Z,2.46
2022-12-28T03:46:49.099Z,2.39
2022-12-28T03:49:15.658Z,2.51
2022-12-28T03:51:43.043Z,2.50
2022-12-28T03:54:09.481Z,2.52
2022-12-28T03:56:45.734Z,2.49
2022-12-28T03:59:12.325Z,2.38
2022-12-28T04:01:38.956Z,2.45
2022-12-28T04:04:05.448Z,2.63
2022-12-28T04:06:31.881Z,2.60
2022-12-28T04:08:58.258Z,2.72
2022-12-28T04:11:24.713Z,2.75
2022-12-28T04:13:51.211Z,2.71
2022-12-28T04:16:18.324Z,2.74
2022-12-28T04:18:45.395Z,2.69
2022-12-28T04:21:13.090Z,2.71
2022-12-28T04:23:39.570Z,2.71
2022-12-28T04:26:11.750Z,2.77
2022-12-28T04:28:38.735Z,2.74
2022-12-28T04:31:08.071Z,2.83
2022-12-28T04:33:35.931Z,2.88
2022-12-28T04:36:13.512Z,2.94
2022-12-28T04:38:40.350Z,3.08
2022-12-28T04:41:08.105Z,3.09
2022-12-28T04:43:34.826Z,3.15
2022-12-28T04:46:04.258Z,3.20
2022-12-28T04:48:31.183Z,3.21
2022-12-28T04:50:58.051Z,3.27
2022-12-28T04:53:24.735Z,3.28
2022-12-28T04:55:51.148Z,3.34
2022-12-28T04:58:17.623Z,3.26
2022-12-28T05:00:44.425Z,3.34
2022-12-28T05:03:11.305Z,3.35
2022-12-28T05:05:38.029Z,3.41
2022-12-28T05:08:05.270Z,3.41
2022-12-28T05:10:31.671Z,3.38
2022-12-28T05:12:58.358Z,3.49
2022-12-28T05:15:24.975Z,3.62
2022-12-28T05:17:51.570Z,3.62
2022-12-28T05:20:20.505Z,3.63
2022-12-28T05:22:46.975Z,3.72
2022-12-28T05:25:13.787Z,3.74
2022-12-28T05:27:40.816Z,3.81
2022-12-28T05:30:08.030Z,3.83
2022-12-28T05:32:34.517Z,3.79
2022-12-28T05:35:00.905Z,3.79
2022-12-28T05:37:27.410Z,3.84
2022-12-28T05:39:53.941Z,3.92
2022-12-28T05:42:20.370Z,3.88
2022-12-28T05:44:46.904Z,4.02
2022-12-28T05:47:13.851Z,3.97
2022-12-28T05:49:40.376Z,3.96
2022-12-28T05:52:06.765Z,3.94
2022-12-28T05:54:33.180Z,4.00
2022-12-28T05:56:59.601Z,3.99
2022-12-28T05:59:26.278Z,4.07
2022-12-28T06:01:52.813Z,3.96
2022-12-28T06:04:20.414Z,4.01
2022-12-28T06:06:48.147Z,4.04
2022-12-28T06:09:14.922Z,4.10
2022-12-28T06:11:41.417Z,4.03
2022-12-28T06:14:08.441Z,4.05
2022-12-28T06:16:37.671Z,4.06
2022-12-28T06:19:09.023Z,4.13
2022-12-28T06:21:36.882Z,4.12
2022-12-28T06:24:04.485Z,4.10
2022-12-28T06:26:32.534Z,4.12
2022-12-28T06:29:00.086Z,4.21
2022-12-28T06:31:35.488Z,4.17
2022-12-28T06:34:04.369Z,4.27
2022-12-28T06:36:34.039Z,4.25
2022-12-28T06:39:02.086Z,4.32
2022-12-28T06:41:29.207Z,4.42
2022-12-28T06:43:56.595Z,4.46
2022-12-28T06:46:24.832Z,4.50
2022-12-28T06:48:51.671Z,4.57
2022-12-28T06:51:23.072Z,4.56
2022-12-28T06:53:50.634Z,4.52
2022-12-28T06:56:22.395Z,4.65
2022-12-28T06:58:49.862Z,4.70
2022-12-28T07:01:28.389Z,4.61
2022-12-28T07:03:56.617Z,4.65
2022-12-28T07:06:25.372Z,4.73
2022-12-28T07:08:52.357Z,4.76
2022-12-28T07:11:21.382Z,4.83
2022-12-28T07:13:48.750Z,4.86
2022-12-28T07:16:20.825Z,4.89
2022-12-28T07:18:47.545Z,5.02
2022-12-28T07:21:15.210Z,4.97
2022-12-28T07:23:42.191Z,4.99
2022-12-28T07:26:11.742Z,5.04
2022-12-28T07:28:45.383Z,5.16
2022-12-28T07:31:14.243Z,5.21
2022-12-28T07:33:40.997Z,5.28
2022-12-28T07:36:09.592Z,5.28
2022-12-28T07:38:36.086Z,5.30
2022-12-28T07:41:07.800Z,5.31
2022-12-28T07:43:35.087Z,5.37
2022-12-28T07:46:07.694Z,5.38
2022-12-28T07:48:35.274Z,5.42
2022-12-28T07:51:12.209Z,5.40
2022-12-28T07:53:40.144Z,5.57
2022-12-28T07:56:07.225Z,5.41
2022-12-28T07:58:33.677Z,5.55
2022-12-28T08:01:04.259Z,5.50
2022-12-28T08:03:30.818Z,5.47
2022-12-28T08:06:05.448Z,5.59
2022-12-28T08:08:34.448Z,5.55
2022-12-28T08:11:12.038Z,5.56
2022-12-28T08:13:40.150Z,5.64
2022-12-28T08:16:07.184Z,5.66
2022-12-28T08:18:33.936Z,5.63
2022-12-28T08:21:27.460Z,5.71
2022-12-28T08:23:54.386Z,5.74
2022-12-28T08:26:35.735Z,5.82
2022-12-28T08:29:05.197Z,5.77
2022-12-28T08:31:37.525Z,5.93
2022-12-28T08:34:05.390Z,6.04
2022-12-28T08:36:32.479Z,6.27
2022-12-28T08:39:00.617Z,6.40
2022-12-28T08:41:28.464Z,6.37
2022-12-28T08:43:55.486Z,6.58
2022-12-28T08:46:27.984Z,6.73
2022-12-28T08:48:55.971Z,6.90
2022-12-28T08:51:32.256Z,7.07
2022-12-28T08:53:59.485Z,7.32
2022-12-28T08:56:31.311Z,7.32
2022-12-28T08:58:59.756Z,7.15
2022-12-28T09:01:43.786Z,7.21
2022-12-28T09:04:19.821Z,7.06
2022-12-28T09:06:46.736Z,7.07
2022-12-28T09:09:15.581Z,7.05
2022-12-28T09:11:42.784Z,6.98
2022-12-28T09:14:17.003Z,7.02
2022-12-28T09:16:47.083Z,7.03
2022-12-28T09:19:14.765Z,7.08
2022-12-28T09:21:41.911Z,7.13
2022-12-28T09:24:08.472Z,7.25
2022-12-28T09:26:37.356Z,7.30
2022-12-28T09:29:06.857Z,7.47
2022-12-28T09:31:36.878Z,7.61
2022-12-28T09:34:35.657Z,7.48
2022-12-28T09:36:54.785Z,7.71
2022-12-28T09:39:24.654Z,7.87
2022-12-28T09:41:58.871Z,7.92
2022-12-28T09:44:40.305Z,8.09
2022-12-28T09:47:13.971Z,8.09
2022-12-28T09:49:47.583Z,8.13
2022-12-28T09:52:14.203Z,8.11
2022-12-28T09:54:41.991Z,7.99
2022-12-28T09:57:14.030Z,8.03
2022-12-28T09:59:41.038Z,8.21
2022-12-28T10:02:24.214Z,8.35
2022-12-28T10:04:50.970Z,8.22
2022-12-28T10:07:17.800Z,8.30
2022-12-28T10:09:45.013Z,8.29
2022-12-28T10:12:25.681Z,8.42
2022-12-28T10:14:53.254Z,8.59
2022-12-28T10:17:27.354Z,8.78
2022-12-28T10:19:57.854Z,8.71
2022-12-28T10:22:25.319Z,8.92
2022-12-28T10:24:51.935Z,8.92
2022-12-28T10:27:24.951Z,8.92
2022-12-28T10:29:52.724Z,9.10
2022-12-28T10:32:19.399Z,9.11
2022-12-28T10:35:00.407Z,9.20
2022-12-28T10:37:31.945Z,9.33
2022-12-28T10:40:00.431Z,9.47
2022-12-28T10:42:32.090Z,9.54
2022-12-28T10:45:03.055Z,9.56
2022-12-28T10:47:41.832Z,9.63
2022-12-28T10:50:39.508Z,9.77
2022-12-28T10:53:16.810Z,9.81
2022-12-28T10:55:44.125Z,9.69
2022-12-28T10:58:33.772Z,9.73
2022-12-28T11:01:13.069Z,9.69
2022-12-28T11:03:53.270Z,9.72
2022-12-28T11:06:26.626Z,9.73
2022-12-28T11:09:19.981Z,9.65
2022-12-28T11:11:47.822Z,9.87
2022-12-28T11:14:16.061Z,9.74
2022-12-28T11:16:43.223Z,9.68
2022-12-28T11:19:11.215Z,9.72
2022-12-28T11:21:37.730Z,9.73
2022-12-28T11:24:05.070Z,9.79
2022-12-28T11:26:33.044Z,10.05
2022-12-28T11:29:01.090Z,9.94
2022-12-28T11:31:34.363Z,9.84
2022-12-28T11:34:06.476Z,9.87
2022-12-28T11:36:38.849Z,9.83
2022-12-28T11:39:27.158Z,9.88
2022-12-28T11:44:48.944Z,9.92
2022-12-28T11:47:15.392Z,10.01
2022-12-28T11:49:43.365Z,10.08
2022-12-28T11:52:27.530Z,9.92
2022-12-28T11:54:56.322Z,9.98
2022-12-28T11:57:36.511Z,9.95
2022-12-28T12:00:23.228Z,9.88
2022-12-28T12:02:52.943Z,9.93
2022-12-28T12:05:47.799Z,9.94
2022-12-28T12:08:17.349Z,10.00
2022-12-28T12:10:47.608Z,9.89
2022-12-28T12:13:26.390Z,10.06
2022-12-28T12:16:04.069Z,9.96
2022-12-28T12:18:56.595Z,9.97
2022-12-28T12:21:39.233Z,9.98
2022-12-28T12:24:20.863Z,9.95
2022-12-28T12:26:54.299Z,9.94
2022-12-28T12:29:42.369Z,10.08
2022-12-28T12:32:19.992Z,10.07
2022-12-28T12:34:56.295Z,9.95
2022-12-28T12:37:53.439Z,9.88
2022-12-28T12:40:42.864Z,9.88
2022-12-28T12:43:22.253Z,9.85
2022-12-28T12:45:48.664Z,9.86
2022-12-28T12:48:20.951Z,9.86
2022-12-28T12:51:32.706Z,9.85
2022-12-28T12:54:08.712Z,9.95
2022-12-28T12:56:49.734Z,10.06
2022-12-28T12:59:39.684Z,9.94
2022-12-28T13:02:12.368Z,10.04
2022-12-28T13:04:42.958Z,9.98
2022-12-28T13:07:18.596Z,10.13
2022-12-28T13:09:45.098Z,10.12
2022-12-28T13:12:17.021Z,10.01
2022-12-28T13:14:45.956Z,10.06
2022-12-28T13:17:18.435Z,10.03
2022-12-28T13:19:44.942Z,10.17
2022-12-28T13:22:32.223Z,10.18
2022-12-28T13:24:59.214Z,10.04
2022-12-28T13:27:31.861Z,10.08
2022-12-28T13:29:58.306Z,10.17
2022-12-28T13:32:35.993Z,10.22
2022-12-28T13:35:18.166Z,10.02
2022-12-28T13:37:58.723Z,10.00
2022-12-28T13:40:25.664Z,10.03
2022-12-28T13:43:00.639Z,9.98
2022-12-28T13:45:28.342Z,10.02
2022-12-28T13:47:55.950Z,9.91
2022-12-28T13:50:26.947Z,9.92
2022-12-28T13:52:58.234Z,9.92
2022-12-28T13:55:29.397Z,9.95
2022-12-28T13:58:00.120Z,10.20
2022-12-28T14:00:28.913Z,10.19
2022-12-28T14:02:56.465Z,10.07
2022-12-28T14:05:26.330Z,10.01
2022-12-28T14:07:54.529Z,10.03
2022-12-28T14:10:21.303Z,9.94
2022-12-28T14:12:48.771Z,9.92
2022-12-28T14:15:16.423Z,9.90
2022-12-28T14:17:45.224Z,9.92
2022-12-28T14:20:11.896Z,9.84
2022-12-28T14:22:39.973Z,9.82
2022-12-28T14:25:09.229Z,9.88
2022-12-28T14:27:46.702Z,9.96
2022-12-28T14:30:28.614Z,10.02
2022-12-28T14:32:55.537Z,9.96
2022-12-28T14:35:27.406Z,9.90
2022-12-28T14:37:59.121Z,10.01
2022-12-28T14:40:34.969Z,10.12
2022-12-28T14:43:10.043Z,10.07
2022-12-28T14:48:40.192Z,10.10
2022-12-28T14:51:25.137Z,10.05
2022-12-28T14:54:17.483Z,10.10
2022-12-28T14:56:51.574Z,10.11
2022-12-28T14:59:38.322Z,10.05
2022-12-28T15:00:25.637Z,10.21
2022-12-28T15:02:05.370Z,10.19
2022-12-28T15:04:39.579Z,10.18
2022-12-28T15:07:07.952Z,10.10
2022-12-28T15:09:34.800Z,10.07
2022-12-28T15:12:13.713Z,10.08
2022-12-28T15:14:40.388Z,10.05
2022-12-28T15:17:07.462Z,10.18
2022-12-28T15:19:33.928Z,10.12
2022-12-28T15:22:00.445Z,9.98
2022-12-28T15:24:33.500Z,9.97
2022-12-28T15:27:01.579Z,9.90
2022-12-28T15:29:47.850Z,10.08
2022-12-28T15:32:14.496Z,10.03
2022-12-28T15:34:41.270Z,10.10
2022-12-28T15:37:07.759Z,10.16
2022-12-28T15:39:34.105Z,10.00
2022-12-28T15:42:00.525Z,10.06
2022-12-28T15:44:27.007Z,9.86
2022-12-28T15:46:53.579Z,9.86
2022-12-28T15:49:20.111Z,9.84
2022-12-28T15:51:46.550Z,9.58
2022-12-28T15:54:13.091Z,9.40
2022-12-28T15:56:41.070Z,9.27
2022-12-28T15:59:14.600Z,9.23
2022-12-28T16:01:43.757Z,9.09
2022-12-28T16:04:10.828Z,8.98
2022-12-28T16:06:43.634Z,9.13
2022-12-28T16:09:10.669Z,9.20
2022-12-28T16:11:37.264Z,9.24
2022-12-28T16:14:05.138Z,9.30
2022-12-28T16:16:35.933Z,9.35
2022-12-28T16:19:02.434Z,9.39
2022-12-28T16:21:29.628Z,9.40
2022-12-28T16:23:56.645Z,9.41
2022-12-28T16:26:23.188Z,9.41
2022-12-28T16:28:49.619Z,9.45
2022-12-28T16:31:34.565Z,9.46
2022-12-28T16:34:06.043Z,9.43
2022-12-28T16:36:33.180Z,9.37
2022-12-28T16:38:59.589Z,9.33
2022-12-28T16:41:28.811Z,9.19
2022-12-28T16:44:05.232Z,9.20
2022-12-28T16:46:32.094Z,9.23
2022-12-28T16:49:02.446Z,9.20
2022-12-28T16:51:30.361Z,9.09
2022-12-28T16:53:57.437Z,9.10
2022-12-28T16:56:24.351Z,9.17
2022-12-28T16:58:50.789Z,9.09
2022-12-28T17:01:17.368Z,9.17
2022-12-28T17:03:43.968Z,9.10
2022-12-28T17:06:10.621Z,9.09
2022-12-28T17:08:37.007Z,9.09
2022-12-28T17:11:07.793Z,9.03
2022-12-28T17:13:34.181Z,9.09
2022-12-28T17:16:01.086Z,9.07
2022-12-28T17:18:28.008Z,9.00
2022-12-28T17:20:54.878Z,8.96
2022-12-28T17:23:21.305Z,8.99
2022-12-28T17:25:53.284Z,8.98
2022-12-28T17:28:20.142Z,8.98
2022-12-28T17:30:46.617Z,8.90
2022-12-28T17:33:14.296Z,8.88
2022-12-28T17:35:40.895Z,8.87
2022-12-28T17:38:07.312Z,8.90
2022-12-28T17:40:33.811Z,8.97
2022-12-28T17:43:00.337Z,8.95
2022-12-28T17:45:26.788Z,9.05
2022-12-28T17:47:53.222Z,9.08
2022-12-28T17:50:20.097Z,9.06
2022-12-28T17:52:46.954Z,9.06
2022-12-28T17:55:13.387Z,9.13
2022-12-28T17:57:41.798Z,9.16
2022-12-28T18:00:08.993Z,9.06
2022-12-28T18:02:35.510Z,9.10
2022-12-28T18:05:02.019Z,9.21
2022-12-28T18:07:28.423Z,9.23
2022-12-28T18:09:54.848Z,9.24
2022-12-28T18:12:21.230Z,9.34
2022-12-28T18:14:48.746Z,9.30
2022-12-28T18:17:19.146Z,9.27
2022-12-28T18:19:45.737Z,9.28
2022-12-28T18:22:12.085Z,9.34
2022-12-28T18:24:38.699Z,9.43
2022-12-28T18:27:05.241Z,9.39
2022-12-28T18:29:31.599Z,9.36
2022-12-28T18:31:57.998Z,9.44
2022-12-28T18:34:24.560Z,9.41
2022-12-28T18:36:51.088Z,9.36
2022-12-28T18:39:17.530Z,9.33
2022-12-28T18:41:43.961Z,9.36
2022-12-28T18:44:10.360Z,9.33
2022-12-28T18:46:37.158Z,9.34
2022-12-28T18:49:03.663Z,9.31
2022-12-28T18:51:30.343Z,9.32
2022-12-28T18:53:56.736Z,9.40
2022-12-28T18:56:23.203Z,9.33
2022-12-28T18:58:54.540Z,9.33
2022-12-28T19:02:04.750Z,9.40
2022-12-28T19:04:11.053Z,9.41
2022-12-28T19:06:37.950Z,9.34
2022-12-28T19:09:06.908Z,9.28
2022-12-28T19:11:33.590Z,9.25
2022-12-28T19:14:02.011Z,9.31
2022-12-28T19:16:31.382Z,9.28
2022-12-28T19:18:59.101Z,9.18
2022-12-28T19:21:28.284Z,9.06
2022-12-28T19:23:55.992Z,9.08
2022-12-28T19:26:23.384Z,9.00
2022-12-28T19:28:49.894Z,8.98
2022-12-28T19:31:16.385Z,8.92
2022-12-28T19:33:42.835Z,8.81
2022-12-28T19:36:10.416Z,8.71
2022-12-28T19:38:36.995Z,8.78
2022-12-28T19:41:06.328Z,8.76
2022-12-28T19:43:32.940Z,8.73
2022-12-28T19:46:08.211Z,8.82
2022-12-28T19:48:34.684Z,8.79
2022-12-28T19:51:01.347Z,8.84
2022-12-28T19:53:28.567Z,8.91
2022-12-28T19:55:59.434Z,8.87
2022-12-28T19:58:25.899Z,8.84
2022-12-28T20:00:52.854Z,8.84
2022-12-28T20:03:19.585Z,8.76
2022-12-28T20:05:46.285Z,8.68
2022-12-28T20:08:12.851Z,8.72
2022-12-28T20:10:39.369Z,8.68
2022-12-28T20:13:05.868Z,8.72
2022-12-28T20:15:33.368Z,8.64
2022-12-28T20:17:59.817Z,8.67
2022-12-28T20:20:28.675Z,8.67
2022-12-28T20:22:57.148Z,8.67
2022-12-28T20:25:23.963Z,8.51
2022-12-28T20:27:50.422Z,8.49
2022-12-28T20:30:17.083Z,8.57
2022-12-28T20:32:45.117Z,8.52
2022-12-28T20:35:12.140Z,8.59
2022-12-28T20:37:38.784Z,8.62
2022-12-28T20:40:05.952Z,8.59
2022-12-28T20:42:51.016Z,8.67
2022-12-28T20:45:17.589Z,8.82
2022-12-28T20:47:44.130Z,8.84
2022-12-28T20:50:10.708Z,8.83
2022-12-28T20:52:37.296Z,8.81
2022-12-28T20:55:03.946Z,8.81
2022-12-28T20:57:30.408Z,8.89
2022-12-28T20:59:58.446Z,8.87
2022-12-28T21:02:24.972Z,8.88
2022-12-28T21:04:51.411Z,8.82
2022-12-28T21:07:19.545Z,8.78
2022-12-28T21:09:50.634Z,8.70
2022-12-28T21:12:17.609Z,8.70
2022-12-28T21:14:44.152Z,8.68
2022-12-28T21:17:10.571Z,8.67
2022-12-28T21:19:36.963Z,8.56
2022-12-28T21:22:03.586Z,8.52
2022-12-28T21:24:30.011Z,8.49
2022-12-28T21:26:56.359Z,8.39
2022-12-28T21:29:25.904Z,8.51
2022-12-28T21:31:52.669Z,8.50
2022-12-28T21:34:19.542Z,8.49
2022-12-28T21:36:46.138Z,8.55
2022-12-28T21:39:12.490Z,8.57
2022-12-28T21:41:51.248Z,8.61
2022-12-28T21:44:22.738Z,8.58
2022-12-28T21:46:51.003Z,8.59
2022-12-28T21:49:18.006Z,8.57
2022-12-28T21:51:44.457Z,8.61
2022-12-28T21:54:16.449Z,8.58
2022-12-28T21:56:44.524Z,8.55
2022-12-28T21:59:12.677Z,8.54
2022-12-28T22:01:59.027Z,8.50
2022-12-28T22:04:44.351Z,8.44
2022-12-28T22:07:13.243Z,8.46
2022-12-28T22:09:58.542Z,8.42
2022-12-28T22:12:35.008Z,8.42
2022-12-28T22:15:37.189Z,8.44
2022-12-28T22:18:06.278Z,8.45
2022-12-28T22:20:34.722Z,8.39
2022-12-28T22:23:01.504Z,8.40
2022-12-28T22:25:29.863Z,8.32
2022-12-28T22:27:56.965Z,8.41
2022-12-28T22:30:23.836Z,8.35
2022-12-28T22:32:50.284Z,8.32
2022-12-28T22:35:16.956Z,8.34
2022-12-28T22:37:43.793Z,8.26
2022-12-28T22:40:11.356Z,8.32
2022-12-28T22:42:45.123Z,8.37
2022-12-28T22:45:13.198Z,8.41
2022-12-28T22:47:39.960Z,8.45
2022-12-28T22:50:08.317Z,8.44
2022-12-28T22:52:34.781Z,8.45
2022-12-28T22:55:01.436Z,8.40
2022-12-28T22:57:28.393Z,8.43
2022-12-28T22:59:55.244Z,8.51
2022-12-28T23:02:21.874Z,8.52
2022-12-28T23:04:48.357Z,8.58
2022-12-28T23:07:14.833Z,8.58
2022-12-28T23:09:41.175Z,8.55
2022-12-28T23:12:07.909Z,8.68
2022-12-28T23:14:53.222Z,8.70
2022-12-28T23:17:19.748Z,8.77
2022-12-28T23:20:05.464Z,8.81
2022-12-28T23:23:12.410Z,8.90
2022-12-28T23:25:59.265Z,9.00
2022-12-28T23:28:26.573Z,9.00
2022-12-28T23:30:53.582Z,9.14
2022-12-28T23:33:19.979Z,9.26
2022-12-28T23:35:46.622Z,9.45
2022-12-28T23:38:13.189Z,9.80
2022-12-28T23:40:40.873Z,9.90
2022-12-28T23:43:08.055Z,10.07
2022-12-28T23:45:34.809Z,10.14
2022-12-28T23:48:01.636Z,10.17
2022-12-28T23:50:28.327Z,10.16
2022-12-28T23:52:55.097Z,10.19
2022-12-28T23:55:21.518Z,10.28
2022-12-28T23:57:47.993Z,10.25
